EVLA/LPX METAR and TAF weather

Enter ICAO airport designator
Station Type Date Time Source
EVLA METAR 2019/12/07 09:50 UTC NOAA

EVLA 070950Z AUTO 21014KT 7000 -RA BKN004/// OVC011/// 07/07 Q0992


Station Type Date Time Source
EVLA Decoded METAR 2019/12/07 09:50 UTC NOAA

Liepaja International Airport, Latvia (EVLA) 56-31N 021-05E
Dec 07, 2019 - 04:50 AM EST / 2019.12.07 0950 UTC
Wind: from the SSW (210 degrees) at 16 MPH (14 KT):0
Visibility: 4 mile(s):0
Sky conditions: overcast
Weather: light rain
Temperature: 44 F (7 C)
Dew Point: 44 F (7 C)
Relative Humidity: 100%
Pressure (altimeter): 29.29 in. Hg (0992 hPa)
ob: EVLA 070950Z AUTO 21014KT 7000 -RA BKN004/// OVC011/// 07/07 Q0992
cycle: 10

Station Type Date Time Source
EVLA TAF 2019/12/07 09:08 UTC NOAA

TAF EVLA 070804Z 0709/0809 22015KT 6000 OVC005
TEMPO 0709/0715 22018G28KT 4000 -RA BR OVC010 PROB40
TEMPO 0709/0715 24020G30KT
FM071500 27015G28KT 9999 BKN015
TEMPO 0715/0802 27020G30KT BKN010

Example: see airport list